Time;durP1;ratioP1;P1;durP2;ratioP2;P2;SDS_P1;SDS_P2;PMS_P1;PMS_P2;Temp;Humidity;BMP_temperature;BMP_pressure;BME280_temperature;BME280_humidity;BME280_pressure;Samples;Min_cycle;Max_cycle;Signal;HPM_P1;HPM_P2
2022/03/13 00:01:42;;;;;;;7.13;6.40;;;;;;;;;;5075793;28;20205;-54
2022/03/13 00:04:13;;;;;;;7.33;6.37;;;;;;;;;;5066206;28;20274;-55
2022/03/13 00:06:39;;;;;;;8.17;6.43;;;;;;;;;;5066106;28;20365;-54
2022/03/13 00:09:12;;;;;;;8.03;6.97;;;;;;;;;;5084531;28;20259;-54
2022/03/13 00:11:39;;;;;;;9.53;7.07;;;;;;;;;;5082453;28;20239;-54
2022/03/13 00:14:06;;;;;;;7.87;6.83;;;;;;;;;;5064985;28;20321;-53
2022/03/13 00:16:33;;;;;;;7.03;6.03;;;;;;;;;;5058340;28;20212;-54
2022/03/13 00:18:59;;;;;;;9.03;6.40;;;;;;;;;;5062340;28;20230;-53
2022/03/13 00:21:25;;;;;;;9.83;6.60;;;;;;;;;;5049327;28;20299;-53
2022/03/13 00:23:51;;;;;;;8.53;7.13;;;;;;;;;;5076795;28;20634;-53
2022/03/13 00:26:18;;;;;;;9.77;6.73;;;;;;;;;;5067926;28;20176;-56
2022/03/13 00:28:45;;;;;;;10.53;7.53;;;;;;;;;;5045511;28;20184;-53
2022/03/13 00:31:12;;;;;;;9.00;7.17;;;;;;;;;;5045482;28;20177;-54
2022/03/13 00:33:38;;;;;;;8.53;7.63;;;;;;;;;;5048996;28;20562;-56
2022/03/13 00:36:05;;;;;;;8.03;6.57;;;;;;;;;;5059486;28;20665;-53
2022/03/13 00:38:31;;;;;;;8.70;7.17;;;;;;;;;;5044326;28;20539;-54
2022/03/13 00:40:58;;;;;;;8.93;6.93;;;;;;;;;;5045424;28;20204;-54
2022/03/13 00:43:27;;;;;;;8.93;7.47;;;;;;;;;;5044798;28;20279;-54
2022/03/13 00:45:54;;;;;;;7.97;6.47;;;;;;;;;;5049598;28;20206;-56
2022/03/13 00:48:20;;;;;;;10.43;7.33;;;;;;;;;;5061160;28;20187;-54
2022/03/13 00:50:46;;;;;;;9.90;6.93;;;;;;;;;;5061992;28;20179;-54
2022/03/13 00:53:13;;;;;;;9.33;6.30;;;;;;;;;;5072420;28;20184;-54
2022/03/13 00:55:40;;;;;;;8.47;7.17;;;;;;;;;;5065063;28;20196;-53
2022/03/13 00:58:06;;;;;;;7.93;6.93;;;;;;;;;;5067376;28;20252;-54
2022/03/13 01:00:32;;;;;;;8.50;6.57;;;;;;;;;;5068022;28;20543;-54
2022/03/13 01:02:58;;;;;;;8.53;7.67;;;;;;;;;;5065490;28;20583;-54
2022/03/13 01:05:26;;;;;;;7.50;6.67;;;;;;;;;;5067596;28;20710;-54
2022/03/13 01:07:54;;;;;;;8.87;6.97;;;;;;;;;;5062223;28;20263;-52
2022/03/13 01:10:20;;;;;;;9.00;6.73;;;;;;;;;;5060352;28;20226;-54
2022/03/13 01:12:48;;;;;;;8.13;6.73;;;;;;;;;;5065383;28;20314;-54
2022/03/13 01:15:14;;;;;;;7.93;6.77;;;;;;;;;;5061249;28;20691;-54
2022/03/13 01:17:42;;;;;;;7.80;6.20;;;;;;;;;;5073628;28;20172;-54
2022/03/13 01:20:21;;;;;;;8.27;7.13;;;;;;;;;;5067626;28;20669;-54
2022/03/13 01:22:48;;;;;;;9.00;6.73;;;;;;;;;;5082301;28;20186;-53
2022/03/13 01:25:14;;;;;;;6.93;6.23;;;;;;;;;;5055035;28;20999;-54
2022/03/13 01:27:41;;;;;;;9.73;7.30;;;;;;;;;;5073323;28;20172;-53
2022/03/13 01:30:08;;;;;;;8.23;7.03;;;;;;;;;;5069587;28;20176;-53
2022/03/13 01:32:36;;;;;;;8.23;6.87;;;;;;;;;;5056294;28;20183;-55
2022/03/13 01:35:03;;;;;;;8.70;6.97;;;;;;;;;;5086024;28;20182;-54
2022/03/13 01:37:35;;;;;;;7.53;6.83;;;;;;;;;;5070151;28;20274;-55
2022/03/13 01:40:04;;;;;;;8.03;6.77;;;;;;;;;;5089335;28;20194;-54
2022/03/13 01:42:31;;;;;;;8.10;7.30;;;;;;;;;;5069679;28;20195;-53
2022/03/13 01:44:57;;;;;;;8.83;6.70;;;;;;;;;;5085947;28;20172;-54
2022/03/13 01:47:24;;;;;;;8.67;6.97;;;;;;;;;;5068552;28;20726;-54
2022/03/13 01:49:51;;;;;;;6.80;5.90;;;;;;;;;;5083014;28;20172;-54
2022/03/13 01:52:21;;;;;;;8.27;6.20;;;;;;;;;;5067614;28;20168;-54
2022/03/13 01:54:47;;;;;;;7.07;6.37;;;;;;;;;;5094826;28;20845;-53
2022/03/13 01:57:18;;;;;;;7.93;6.63;;;;;;;;;;5069172;28;20249;-53
2022/03/13 01:59:44;;;;;;;8.77;7.10;;;;;;;;;;5056285;28;20187;-54
2022/03/13 02:02:12;;;;;;;6.93;6.23;;;;;;;;;;5051547;28;20567;-55
2022/03/13 02:04:38;;;;;;;6.70;6.00;;;;;;;;;;5048651;28;20185;-54
2022/03/13 02:07:04;;;;;;;7.67;6.60;;;;;;;;;;5084720;28;20214;-53
2022/03/13 02:09:31;;;;;;;9.10;6.17;;;;;;;;;;5073697;28;20175;-53
2022/03/13 02:11:57;;;;;;;8.93;6.77;;;;;;;;;;5039362;28;20224;-53
2022/03/13 02:14:24;;;;;;;7.73;6.13;;;;;;;;;;5047276;28;20646;-54
2022/03/13 02:16:51;;;;;;;7.90;6.17;;;;;;;;;;5050412;28;20207;-54
2022/03/13 02:19:18;;;;;;;8.17;7.20;;;;;;;;;;5063812;28;20222;-55
2022/03/13 02:21:45;;;;;;;8.70;6.40;;;;;;;;;;5047321;28;20611;-55
2022/03/13 02:24:18;;;;;;;7.37;6.03;;;;;;;;;;5049579;28;20168;-53
2022/03/13 02:26:47;;;;;;;7.53;6.07;;;;;;;;;;5046464;28;20186;-55
2022/03/13 02:29:15;;;;;;;8.23;6.73;;;;;;;;;;5043330;28;20179;-52
2022/03/13 02:31:41;;;;;;;7.73;5.97;;;;;;;;;;5050215;28;20203;-54
2022/03/13 02:34:12;;;;;;;6.80;5.67;;;;;;;;;;5064026;28;20264;-54
2022/03/13 02:36:38;;;;;;;8.13;6.27;;;;;;;;;;5051065;28;20180;-52
2022/03/13 02:39:05;;;;;;;6.40;5.73;;;;;;;;;;5050060;28;20176;-54
2022/03/13 02:41:35;;;;;;;6.20;5.60;;;;;;;;;;5056153;28;20207;-55
2022/03/13 02:44:02;;;;;;;7.80;5.87;;;;;;;;;;5054513;28;20199;-53
2022/03/13 02:46:57;;;;;;;7.20;5.90;;;;;;;;;;5046878;28;20812;-53
2022/03/13 02:49:25;;;;;;;7.43;6.03;;;;;;;;;;5032114;28;20565;-53
2022/03/13 02:51:52;;;;;;;6.17;5.53;;;;;;;;;;5050127;28;20570;-53
2022/03/13 02:54:19;;;;;;;6.73;6.03;;;;;;;;;;5042307;28;20177;-53
2022/03/13 02:56:46;;;;;;;6.67;5.87;;;;;;;;;;5053735;28;20697;-55
2022/03/13 02:59:13;;;;;;;7.20;6.50;;;;;;;;;;5070184;28;20180;-53
2022/03/13 03:01:40;;;;;;;9.10;5.97;;;;;;;;;;5051846;28;20199;-52
2022/03/13 03:04:06;;;;;;;9.17;6.20;;;;;;;;;;5045329;28;20657;-56
2022/03/13 03:06:34;;;;;;;6.13;5.43;;;;;;;;;;5044050;28;20795;-52
2022/03/13 03:09:02;;;;;;;6.70;5.90;;;;;;;;;;5052385;28;20167;-53
2022/03/13 03:11:28;;;;;;;6.43;5.60;;;;;;;;;;5052929;28;20225;-54
2022/03/13 03:13:55;;;;;;;6.30;5.63;;;;;;;;;;5067062;28;20226;-53
2022/03/13 03:16:21;;;;;;;6.17;5.57;;;;;;;;;;5073426;28;20211;-54
2022/03/13 03:18:50;;;;;;;6.77;5.57;;;;;;;;;;5072027;28;20552;-53
2022/03/13 03:21:17;;;;;;;6.10;5.50;;;;;;;;;;5092247;28;20198;-56
2022/03/13 03:23:44;;;;;;;6.00;5.40;;;;;;;;;;5073118;28;20217;-54
2022/03/13 03:26:11;;;;;;;6.93;5.40;;;;;;;;;;5084289;28;20246;-53
2022/03/13 03:28:37;;;;;;;6.90;5.63;;;;;;;;;;5085563;28;20570;-54
2022/03/13 03:31:04;;;;;;;6.60;5.53;;;;;;;;;;5051947;28;20176;-54
2022/03/13 03:33:30;;;;;;;7.87;5.63;;;;;;;;;;5090665;28;20191;-53
2022/03/13 03:35:57;;;;;;;8.23;6.17;;;;;;;;;;5070758;28;20196;-54
2022/03/13 03:38:24;;;;;;;6.60;5.30;;;;;;;;;;5071344;28;20171;-54
2022/03/13 03:40:51;;;;;;;6.67;5.40;;;;;;;;;;5071810;28;20245;-53
2022/03/13 03:43:20;;;;;;;7.37;6.00;;;;;;;;;;5054214;28;20549;-53
2022/03/13 03:45:47;;;;;;;5.87;5.17;;;;;;;;;;5070464;28;20562;-54
2022/03/13 03:48:13;;;;;;;6.77;5.70;;;;;;;;;;5073258;28;20184;-54
2022/03/13 03:50:39;;;;;;;6.67;5.73;;;;;;;;;;5063270;28;20187;-53
2022/03/13 03:53:06;;;;;;;7.80;6.07;;;;;;;;;;5070650;28;20176;-55
2022/03/13 03:55:32;;;;;;;6.43;5.20;;;;;;;;;;5070280;28;20614;-53
2022/03/13 03:57:59;;;;;;;6.93;5.70;;;;;;;;;;5085077;28;20276;-53
2022/03/13 04:00:26;;;;;;;5.60;5.10;;;;;;;;;;5066975;28;20228;-53
2022/03/13 04:02:53;;;;;;;5.83;5.10;;;;;;;;;;5062388;28;20214;-53
2022/03/13 04:05:19;;;;;;;6.73;5.73;;;;;;;;;;5087557;28;20180;-54
2022/03/13 04:07:45;;;;;;;7.00;5.40;;;;;;;;;;5092351;28;20195;-54
2022/03/13 04:10:11;;;;;;;6.73;5.40;;;;;;;;;;5087497;28;20168;-53
2022/03/13 04:12:38;;;;;;;7.10;6.07;;;;;;;;;;5094588;28;20232;-54
2022/03/13 04:15:05;;;;;;;6.40;5.00;;;;;;;;;;5071218;28;20183;-53
2022/03/13 04:17:32;;;;;;;6.03;5.43;;;;;;;;;;5087801;28;20655;-53
2022/03/13 04:19:59;;;;;;;7.43;5.67;;;;;;;;;;5061695;28;20220;-54
2022/03/13 04:22:27;;;;;;;6.93;6.20;;;;;;;;;;5088618;28;20211;-53
2022/03/13 04:24:53;;;;;;;6.63;5.93;;;;;;;;;;5077025;28;20196;-53
2022/03/13 04:27:20;;;;;;;6.07;5.23;;;;;;;;;;5073234;28;20179;-53
2022/03/13 04:29:46;;;;;;;7.60;6.30;;;;;;;;;;5079191;28;20541;-54
2022/03/13 04:32:13;;;;;;;6.80;6.20;;;;;;;;;;5092983;28;20400;-54
2022/03/13 04:34:40;;;;;;;6.50;5.57;;;;;;;;;;5080444;28;20175;-53
2022/03/13 04:37:06;;;;;;;7.10;6.13;;;;;;;;;;5070189;28;20179;-52
2022/03/13 04:39:36;;;;;;;7.27;5.90;;;;;;;;;;5088063;28;20192;-55
2022/03/13 04:42:06;;;;;;;6.37;5.77;;;;;;;;;;5086624;28;20298;-54
2022/03/13 04:44:34;;;;;;;6.03;5.20;;;;;;;;;;5070371;28;20187;-54
2022/03/13 04:47:00;;;;;;;6.73;6.10;;;;;;;;;;5071098;28;20251;-53
2022/03/13 04:49:27;;;;;;;7.70;5.47;;;;;;;;;;5071781;28;20590;-53
2022/03/13 04:51:53;;;;;;;5.97;5.37;;;;;;;;;;5076666;28;20191;-56
2022/03/13 04:54:19;;;;;;;6.30;5.70;;;;;;;;;;5074875;28;20269;-52
2022/03/13 04:56:45;;;;;;;6.83;5.53;;;;;;;;;;5088059;28;20282;-53
2022/03/13 04:59:12;;;;;;;6.88;5.45;;;;;;;;;;5087868;28;20423;-54
2022/03/13 05:01:38;;;;;;;6.40;5.40;;;;;;;;;;5087985;28;20294;-53
2022/03/13 05:04:08;;;;;;;6.73;5.50;;;;;;;;;;5068444;28;20264;-54
2022/03/13 05:06:37;;;;;;;5.47;4.93;;;;;;;;;;5067789;28;20190;-53
2022/03/13 05:09:05;;;;;;;7.20;6.47;;;;;;;;;;5069519;28;20176;-54
2022/03/13 05:11:31;;;;;;;5.53;4.97;;;;;;;;;;5066186;28;20234;-54
2022/03/13 05:13:57;;;;;;;7.40;6.33;;;;;;;;;;5069859;28;20266;-53
2022/03/13 05:16:24;;;;;;;6.37;5.73;;;;;;;;;;5090805;28;20664;-54
2022/03/13 05:18:50;;;;;;;7.00;5.90;;;;;;;;;;5086822;28;20182;-55
2022/03/13 05:21:18;;;;;;;7.73;6.80;;;;;;;;;;5076134;28;20194;-54
2022/03/13 05:23:44;;;;;;;6.23;5.47;;;;;;;;;;5071252;28;20234;-53
2022/03/13 05:26:11;;;;;;;7.10;5.53;;;;;;;;;;5068590;28;20286;-53
2022/03/13 05:28:37;;;;;;;7.50;5.80;;;;;;;;;;5082237;28;20194;-55
2022/03/13 05:31:04;;;;;;;7.37;6.00;;;;;;;;;;5069638;28;20188;-53
2022/03/13 05:33:30;;;;;;;7.43;5.63;;;;;;;;;;5068025;28;20175;-54
2022/03/13 05:35:57;;;;;;;5.97;5.13;;;;;;;;;;5069640;28;20263;-53
2022/03/13 05:38:23;;;;;;;7.63;5.80;;;;;;;;;;5086080;28;20195;-55
2022/03/13 05:40:49;;;;;;;7.70;6.53;;;;;;;;;;5077735;28;20193;-52
2022/03/13 05:43:16;;;;;;;8.03;5.67;;;;;;;;;;5094392;28;20176;-53
2022/03/13 05:45:42;;;;;;;8.83;6.00;;;;;;;;;;5085341;28;20262;-53
2022/03/13 05:48:10;;;;;;;7.13;5.70;;;;;;;;;;5070290;28;20635;-54
2022/03/13 05:50:37;;;;;;;7.40;5.83;;;;;;;;;;5085440;28;20224;-52
2022/03/13 05:53:03;;;;;;;6.27;5.50;;;;;;;;;;5085760;28;20662;-53
2022/03/13 05:55:30;;;;;;;7.53;5.60;;;;;;;;;;5090579;28;20176;-53
2022/03/13 05:57:57;;;;;;;6.90;6.03;;;;;;;;;;5099986;28;20681;-54
2022/03/13 06:00:25;;;;;;;7.90;6.53;;;;;;;;;;5086288;28;20175;-55
2022/03/13 06:02:51;;;;;;;5.83;5.27;;;;;;;;;;5066642;28;20239;-53
2022/03/13 06:05:17;;;;;;;7.57;5.70;;;;;;;;;;5085626;28;20180;-53
2022/03/13 06:07:45;;;;;;;7.77;5.77;;;;;;;;;;5067564;28;20175;-53
2022/03/13 06:10:12;;;;;;;6.87;5.90;;;;;;;;;;5068805;28;20168;-53
2022/03/13 06:12:38;;;;;;;7.00;5.17;;;;;;;;;;5054829;28;20232;-54
2022/03/13 06:15:05;;;;;;;7.80;5.80;;;;;;;;;;5051568;28;20189;-55
2022/03/13 06:17:31;;;;;;;7.03;5.53;;;;;;;;;;5078087;28;20543;-56
2022/03/13 06:19:58;;;;;;;10.03;5.70;;;;;;;;;;5066357;28;20231;-54
2022/03/13 06:22:24;;;;;;;8.23;5.57;;;;;;;;;;5063571;28;20214;-55
2022/03/13 06:24:50;;;;;;;6.90;6.03;;;;;;;;;;5067265;28;20225;-53
2022/03/13 06:27:18;;;;;;;7.27;6.13;;;;;;;;;;5077547;28;20256;-53
2022/03/13 06:29:44;;;;;;;7.37;6.27;;;;;;;;;;5067335;28;20182;-54
2022/03/13 06:32:13;;;;;;;9.67;5.90;;;;;;;;;;5074557;28;20184;-54
2022/03/13 06:34:39;;;;;;;7.00;5.47;;;;;;;;;;5068525;28;20192;-55
2022/03/13 06:37:05;;;;;;;7.47;5.60;;;;;;;;;;5064492;28;20202;-54
2022/03/13 06:39:32;;;;;;;7.80;5.87;;;;;;;;;;5070441;28;20184;-54
2022/03/13 06:41:59;;;;;;;8.00;5.77;;;;;;;;;;5048590;28;20207;-53
2022/03/13 06:44:25;;;;;;;8.47;5.73;;;;;;;;;;5048247;28;20604;-54
2022/03/13 06:46:51;;;;;;;6.90;6.20;;;;;;;;;;5074803;28;20631;-53
2022/03/13 06:49:18;;;;;;;6.53;5.43;;;;;;;;;;5053770;28;20183;-54
2022/03/13 06:51:44;;;;;;;7.77;5.80;;;;;;;;;;5065019;28;20184;-54
2022/03/13 06:54:11;;;;;;;6.23;5.13;;;;;;;;;;5071646;28;20180;-54
2022/03/13 06:56:38;;;;;;;7.77;6.70;;;;;;;;;;5064678;28;20208;-55
2022/03/13 06:59:05;;;;;;;7.93;6.03;;;;;;;;;;5063517;28;20212;-55
2022/03/13 07:01:32;;;;;;;7.90;6.07;;;;;;;;;;5046559;28;20210;-55
2022/03/13 07:03:58;;;;;;;6.60;5.90;;;;;;;;;;5050623;28;20219;-52
2022/03/13 07:06:25;;;;;;;6.77;5.50;;;;;;;;;;5064509;28;20176;-55
2022/03/13 07:08:51;;;;;;;8.07;6.13;;;;;;;;;;5052182;28;20243;-55
2022/03/13 07:11:17;;;;;;;8.77;5.80;;;;;;;;;;5070121;28;20255;-58
2022/03/13 07:13:45;;;;;;;8.97;6.07;;;;;;;;;;5070338;28;20712;-55
2022/03/13 07:16:14;;;;;;;6.43;5.83;;;;;;;;;;5036447;28;20223;-56
2022/03/13 07:18:42;;;;;;;8.17;5.80;;;;;;;;;;5070249;28;20192;-54
2022/03/13 07:21:08;;;;;;;6.90;5.73;;;;;;;;;;5056380;28;20246;-54
2022/03/13 07:23:35;;;;;;;7.60;5.87;;;;;;;;;;5048541;28;20200;-57
2022/03/13 07:26:01;;;;;;;8.17;5.00;;;;;;;;;;5042491;28;20180;-54
2022/03/13 07:28:28;;;;;;;6.90;5.90;;;;;;;;;;5051162;28;20188;-55
2022/03/13 07:30:54;;;;;;;7.17;6.40;;;;;;;;;;5067128;28;20187;-55
2022/03/13 07:33:20;;;;;;;7.17;5.50;;;;;;;;;;5068347;28;20191;-55
2022/03/13 07:35:47;;;;;;;8.57;5.80;;;;;;;;;;5055674;28;20192;-53
2022/03/13 07:38:13;;;;;;;6.00;5.40;;;;;;;;;;5067724;28;20177;-53
2022/03/13 07:40:39;;;;;;;6.77;5.70;;;;;;;;;;5069125;28;20573;-54
2022/03/13 07:43:05;;;;;;;6.43;5.50;;;;;;;;;;5073817;28;20187;-56
2022/03/13 07:45:32;;;;;;;9.33;6.27;;;;;;;;;;5075172;28;20663;-54
2022/03/13 07:47:59;;;;;;;7.37;6.07;;;;;;;;;;5068359;28;21913;-53
2022/03/13 07:50:29;;;;;;;7.83;5.97;;;;;;;;;;5070035;28;20180;-55
2022/03/13 07:52:56;;;;;;;7.67;6.13;;;;;;;;;;5043595;28;20660;-55
2022/03/13 07:55:22;;;;;;;6.57;5.40;;;;;;;;;;5055779;28;20185;-54
2022/03/13 07:57:51;;;;;;;8.13;5.90;;;;;;;;;;5067918;28;20884;-53
2022/03/13 08:00:20;;;;;;;6.43;5.47;;;;;;;;;;5046969;28;20632;-54
2022/03/13 08:02:47;;;;;;;6.37;5.40;;;;;;;;;;5049436;28;20203;-54
2022/03/13 08:05:22;;;;;;;7.63;6.63;;;;;;;;;;5041969;28;20214;-53
2022/03/13 08:07:52;;;;;;;8.47;6.37;;;;;;;;;;5052141;28;20683;-53
2022/03/13 08:10:23;;;;;;;7.60;5.87;;;;;;;;;;5069540;28;20187;-56
2022/03/13 08:12:49;;;;;;;6.90;5.10;;;;;;;;;;5068309;28;20318;-53
2022/03/13 08:15:17;;;;;;;8.43;5.97;;;;;;;;;;5075651;28;20186;-54
2022/03/13 08:17:43;;;;;;;7.40;6.10;;;;;;;;;;5082373;28;20547;-53
2022/03/13 08:20:10;;;;;;;6.53;5.43;;;;;;;;;;5088079;28;20194;-55
2022/03/13 08:22:37;;;;;;;8.80;6.30;;;;;;;;;;5070410;28;20796;-54
2022/03/13 08:25:03;;;;;;;9.13;6.40;;;;;;;;;;5090562;28;20660;-54
2022/03/13 08:27:29;;;;;;;8.93;6.20;;;;;;;;;;5078648;28;20179;-56
2022/03/13 08:29:55;;;;;;;7.57;5.83;;;;;;;;;;5081840;28;20171;-54
2022/03/13 08:32:21;;;;;;;7.37;6.40;;;;;;;;;;5055245;28;20183;-54
2022/03/13 08:34:48;;;;;;;8.20;6.90;;;;;;;;;;5086691;28;20188;-54
2022/03/13 08:37:15;;;;;;;8.40;7.10;;;;;;;;;;5081049;28;20179;-53
2022/03/13 08:39:42;;;;;;;8.50;6.67;;;;;;;;;;5089784;28;20184;-56
2022/03/13 08:42:08;;;;;;;8.70;6.87;;;;;;;;;;5070359;28;20202;-54
2022/03/13 08:44:34;;;;;;;8.20;6.00;;;;;;;;;;5069147;28;20246;-53
2022/03/13 08:47:00;;;;;;;7.43;6.50;;;;;;;;;;5068122;28;20550;-53
2022/03/13 08:49:27;;;;;;;8.37;6.40;;;;;;;;;;5070865;28;20184;-55
2022/03/13 08:51:54;;;;;;;9.53;6.63;;;;;;;;;;5097183;28;20186;-53
2022/03/13 08:54:20;;;;;;;7.13;6.03;;;;;;;;;;5088780;28;20191;-54
2022/03/13 08:56:48;;;;;;;8.30;6.33;;;;;;;;;;5071918;28;20191;-53
2022/03/13 08:59:20;;;;;;;7.60;6.60;;;;;;;;;;5087820;28;20180;-54
2022/03/13 09:01:47;;;;;;;8.13;6.50;;;;;;;;;;5070537;28;20226;-52
2022/03/13 09:04:14;;;;;;;8.43;6.60;;;;;;;;;;5071018;28;20219;-53
2022/03/13 09:06:42;;;;;;;7.70;6.90;;;;;;;;;;5050049;28;20184;-54
2022/03/13 09:09:09;;;;;;;8.03;6.27;;;;;;;;;;5088440;28;20202;-53
2022/03/13 09:11:35;;;;;;;7.70;6.70;;;;;;;;;;5088803;28;20215;-52
2022/03/13 09:14:03;;;;;;;8.93;6.77;;;;;;;;;;5082128;28;20274;-53
2022/03/13 09:16:32;;;;;;;10.67;7.13;;;;;;;;;;5089335;28;20258;-55
2022/03/13 09:18:58;;;;;;;9.23;7.20;;;;;;;;;;5089451;28;20325;-55
2022/03/13 09:21:24;;;;;;;8.60;6.87;;;;;;;;;;5074702;28;20200;-55
2022/03/13 09:23:51;;;;;;;9.63;7.67;;;;;;;;;;5058922;28;20507;-54
2022/03/13 09:26:17;;;;;;;9.80;7.37;;;;;;;;;;5068300;28;20265;-56
2022/03/13 09:28:43;;;;;;;10.23;7.70;;;;;;;;;;5074337;28;20634;-54
2022/03/13 09:31:10;;;;;;;11.10;7.63;;;;;;;;;;5086949;28;20175;-53
2022/03/13 09:33:36;;;;;;;9.80;7.70;;;;;;;;;;5088443;28;20591;-54
2022/03/13 09:36:02;;;;;;;8.83;7.53;;;;;;;;;;5083756;28;20213;-54
2022/03/13 09:38:28;;;;;;;9.07;7.33;;;;;;;;;;5081844;28;20212;-53
2022/03/13 09:40:55;;;;;;;9.37;7.53;;;;;;;;;;5068761;28;20235;-53
2022/03/13 09:43:22;;;;;;;8.53;7.23;;;;;;;;;;5075336;28;20180;-54
2022/03/13 09:45:49;;;;;;;9.00;7.30;;;;;;;;;;5069015;28;20179;-54
2022/03/13 09:48:17;;;;;;;14.90;8.00;;;;;;;;;;5070804;28;20750;-53
2022/03/13 09:50:44;;;;;;;9.67;7.07;;;;;;;;;;5076396;28;20180;-55
2022/03/13 09:53:11;;;;;;;9.57;7.80;;;;;;;;;;5065671;28;20180;-57
2022/03/13 09:55:38;;;;;;;8.50;7.07;;;;;;;;;;5088567;28;20610;-56
2022/03/13 09:58:08;;;;;;;10.23;7.90;;;;;;;;;;5083741;28;20659;-54
2022/03/13 10:00:36;;;;;;;9.47;7.77;;;;;;;;;;5069836;28;20176;-56
2022/03/13 10:03:06;;;;;;;9.33;7.73;;;;;;;;;;5054788;28;20561;-53
2022/03/13 10:05:40;;;;;;;8.57;7.57;;;;;;;;;;5065083;28;20291;-55
2022/03/13 10:08:07;;;;;;;10.30;7.60;;;;;;;;;;5071410;28;20566;-54
2022/03/13 10:10:44;;;;;;;10.97;7.90;;;;;;;;;;5088978;28;20190;-55
2022/03/13 10:13:10;;;;;;;8.17;6.67;;;;;;;;;;5085191;28;20247;-54
2022/03/13 10:15:44;;;;;;;9.80;6.97;;;;;;;;;;5086659;28;20648;-53
2022/03/13 10:18:18;;;;;;;10.90;8.13;;;;;;;;;;5071850;28;20176;-54
2022/03/13 10:20:45;;;;;;;9.10;7.75;;;;;;;;;;5081176;28;20544;-55
2022/03/13 10:23:15;;;;;;;10.63;8.77;;;;;;;;;;5067638;28;20457;-55
2022/03/13 10:25:42;;;;;;;9.97;7.80;;;;;;;;;;5083535;28;20179;-55
2022/03/13 10:28:31;;;;;;;10.43;8.23;;;;;;;;;;5074510;28;20890;-55
2022/03/13 10:31:00;;;;;;;10.17;8.03;;;;;;;;;;5065616;28;20267;-55
2022/03/13 10:33:39;;;;;;;8.47;7.40;;;;;;;;;;5077473;28;20551;-55
2022/03/13 10:36:21;;;;;;;8.73;7.30;;;;;;;;;;5072706;28;20167;-54
2022/03/13 10:38:48;;;;;;;12.80;8.90;;;;;;;;;;5074843;28;20184;-55
2022/03/13 10:41:14;;;;;;;10.70;8.33;;;;;;;;;;5076348;28;20206;-55
2022/03/13 10:43:53;;;;;;;10.47;8.63;;;;;;;;;;5077704;28;20184;-57
2022/03/13 10:46:29;;;;;;;10.07;7.87;;;;;;;;;;5078790;28;20196;-58
2022/03/13 10:48:55;;;;;;;10.20;7.93;;;;;;;;;;5071353;28;20564;-53
2022/03/13 10:51:45;;;;;;;10.43;8.40;;;;;;;;;;5070732;28;20192;-58
2022/03/13 10:54:25;;;;;;;13.73;10.17;;;;;;;;;;5089007;28;20215;-54
2022/03/13 10:57:04;;;;;;;10.57;8.70;;;;;;;;;;5065738;28;20697;-55
2022/03/13 10:59:31;;;;;;;11.13;9.13;;;;;;;;;;5084927;28;20171;-55
2022/03/13 11:02:17;;;;;;;10.37;8.67;;;;;;;;;;5064722;28;20232;-55
2022/03/13 11:04:57;;;;;;;10.63;8.53;;;;;;;;;;5063222;28;20706;-54
2022/03/13 11:07:26;;;;;;;9.53;8.50;;;;;;;;;;5066396;28;20249;-54
2022/03/13 11:09:54;;;;;;;10.93;8.63;;;;;;;;;;5062280;28;20175;-54
2022/03/13 11:12:20;;;;;;;8.70;7.77;;;;;;;;;;5055422;28;20315;-55
2022/03/13 11:15:00;;;;;;;9.77;8.47;;;;;;;;;;5084177;28;20183;-53
2022/03/13 11:17:27;;;;;;;14.03;9.30;;;;;;;;;;5073762;28;20215;-55
2022/03/13 11:20:01;;;;;;;12.07;8.80;;;;;;;;;;5052586;28;20543;-54
2022/03/13 11:22:28;;;;;;;10.93;9.47;;;;;;;;;;5067077;28;20212;-54
2022/03/13 11:25:02;;;;;;;11.00;8.90;;;;;;;;;;5070289;28;20218;-56
2022/03/13 11:27:30;;;;;;;9.00;7.77;;;;;;;;;;5049926;28;20570;-54
2022/03/13 11:29:57;;;;;;;9.53;8.23;;;;;;;;;;5054104;28;20179;-54
2022/03/13 11:32:32;;;;;;;13.07;10.30;;;;;;;;;;5068989;28;20200;-55
2022/03/13 11:35:11;;;;;;;9.47;8.47;;;;;;;;;;5064582;28;20529;-55
2022/03/13 11:37:38;;;;;;;9.57;8.20;;;;;;;;;;5049853;28;20176;-54
2022/03/13 11:40:05;;;;;;;10.70;8.97;;;;;;;;;;5067905;28;20189;-56
2022/03/13 11:42:48;;;;;;;10.53;9.37;;;;;;;;;;5046045;28;20893;-54
2022/03/13 11:45:35;;;;;;;9.83;8.50;;;;;;;;;;5048711;28;20180;-54
2022/03/13 11:48:14;;;;;;;10.00;8.50;;;;;;;;;;5066368;28;20638;-54
2022/03/13 11:50:52;;;;;;;10.57;9.40;;;;;;;;;;5073754;28;20561;-55
2022/03/13 11:53:23;;;;;;;12.70;9.40;;;;;;;;;;5049849;28;20190;-54
2022/03/13 11:56:02;;;;;;;10.73;8.87;;;;;;;;;;5049779;28;20180;-56
2022/03/13 11:58:48;;;;;;;11.27;9.20;;;;;;;;;;5038983;28;20184;-57
2022/03/13 12:01:21;;;;;;;10.17;8.83;;;;;;;;;;5065698;28;20258;-57
2022/03/13 12:04:07;;;;;;;9.50;8.40;;;;;;;;;;5061361;28;20878;-54
2022/03/13 12:06:39;;;;;;;11.20;8.60;;;;;;;;;;5038582;28;20913;-55
2022/03/13 12:09:07;;;;;;;9.60;8.40;;;;;;;;;;5060684;28;20233;-55
2022/03/13 12:11:38;;;;;;;9.40;8.40;;;;;;;;;;5062028;28;20227;-55
2022/03/13 12:14:08;;;;;;;9.10;8.13;;;;;;;;;;5086127;28;20629;-56
2022/03/13 12:16:35;;;;;;;9.73;8.73;;;;;;;;;;5083339;28;20776;-56
2022/03/13 12:19:02;;;;;;;9.13;8.23;;;;;;;;;;5063220;28;20557;-56
2022/03/13 12:21:29;;;;;;;9.67;8.67;;;;;;;;;;5085763;28;20202;-54
2022/03/13 12:23:58;;;;;;;8.33;7.27;;;;;;;;;;5086924;28;20179;-57
2022/03/13 12:26:30;;;;;;;11.40;8.70;;;;;;;;;;5067746;28;20484;-55
2022/03/13 12:28:57;;;;;;;10.25;9.05;;;;;;;;;;5086091;28;20393;-57
2022/03/13 12:31:25;;;;;;;10.53;8.47;;;;;;;;;;5069496;28;20503;-54
2022/03/13 12:33:53;;;;;;;10.17;8.60;;;;;;;;;;5083679;28;20205;-55
2022/03/13 12:36:19;;;;;;;11.93;8.70;;;;;;;;;;5085287;28;20267;-55
2022/03/13 12:38:49;;;;;;;9.30;8.37;;;;;;;;;;5064513;28;20422;-55
2022/03/13 12:41:15;;;;;;;10.07;8.47;;;;;;;;;;5090897;28;20218;-54
2022/03/13 12:43:49;;;;;;;9.60;8.23;;;;;;;;;;5087326;28;20182;-54
2022/03/13 12:46:17;;;;;;;8.63;7.73;;;;;;;;;;5085568;28;20763;-55
2022/03/13 12:48:53;;;;;;;8.33;7.53;;;;;;;;;;5089133;28;20583;-55
2022/03/13 12:51:39;;;;;;;13.40;8.07;;;;;;;;;;5084565;28;20171;-55
2022/03/13 12:54:07;;;;;;;8.17;7.33;;;;;;;;;;5084988;28;20181;-55
2022/03/13 12:56:35;;;;;;;9.93;8.13;;;;;;;;;;5067265;28;20644;-55
2022/03/13 12:59:01;;;;;;;8.73;7.87;;;;;;;;;;5086627;28;20187;-56
2022/03/13 13:01:28;;;;;;;8.30;7.20;;;;;;;;;;5086415;28;20203;-54
2022/03/13 13:03:55;;;;;;;8.33;7.37;;;;;;;;;;5084637;28;20577;-54
2022/03/13 13:06:28;;;;;;;8.30;7.43;;;;;;;;;;5085511;28;20665;-55
2022/03/13 13:08:55;;;;;;;8.83;7.53;;;;;;;;;;5098884;28;20255;-54
2022/03/13 13:11:28;;;;;;;8.97;7.73;;;;;;;;;;5095863;28;20216;-56
2022/03/13 13:13:59;;;;;;;8.63;7.30;;;;;;;;;;5073544;28;20262;-53
2022/03/13 13:16:28;;;;;;;8.87;7.87;;;;;;;;;;5082805;28;20233;-53
2022/03/13 13:18:54;;;;;;;8.37;7.57;;;;;;;;;;5078255;28;20704;-54
2022/03/13 13:21:32;;;;;;;8.63;7.63;;;;;;;;;;5078958;28;20223;-55
2022/03/13 13:23:59;;;;;;;7.70;6.90;;;;;;;;;;5087037;28;20164;-54
2022/03/13 13:26:43;;;;;;;9.07;7.57;;;;;;;;;;5081009;28;20271;-54
2022/03/13 13:29:09;;;;;;;8.07;6.90;;;;;;;;;;5086348;28;20200;-54
2022/03/13 13:31:36;;;;;;;7.73;7.03;;;;;;;;;;5082558;28;20923;-54
2022/03/13 13:34:22;;;;;;;5.70;5.20;;;;;;;;;;5058434;28;20188;-55
2022/03/13 13:36:48;;;;;;;7.13;5.63;;;;;;;;;;5076653;28;20185;-55
2022/03/13 13:39:14;;;;;;;6.40;5.73;;;;;;;;;;5083985;28;20200;-54
2022/03/13 13:41:41;;;;;;;5.93;5.27;;;;;;;;;;5084850;28;20574;-54
2022/03/13 13:44:07;;;;;;;5.20;4.73;;;;;;;;;;5078612;28;20206;-57
2022/03/13 13:46:34;;;;;;;6.17;5.57;;;;;;;;;;5062762;28;20625;-55
2022/03/13 13:49:01;;;;;;;6.23;5.43;;;;;;;;;;5066231;28;20191;-55
2022/03/13 13:51:30;;;;;;;7.77;5.50;;;;;;;;;;5078963;28;20223;-56
2022/03/13 13:54:15;;;;;;;6.40;5.80;;;;;;;;;;5059561;28;20248;-56
2022/03/13 13:57:02;;;;;;;7.90;5.90;;;;;;;;;;5081989;28;20663;-56
2022/03/13 13:59:35;;;;;;;6.83;5.83;;;;;;;;;;5081830;28;20225;-56
2022/03/13 14:02:04;;;;;;;7.17;6.47;;;;;;;;;;5084938;28;20225;-54
2022/03/13 14:04:34;;;;;;;6.63;5.77;;;;;;;;;;5081180;28;20236;-56
2022/03/13 14:07:00;;;;;;;6.10;5.50;;;;;;;;;;5071404;28;20268;-55
2022/03/13 14:09:27;;;;;;;6.73;6.07;;;;;;;;;;5078500;28;20184;-56
2022/03/13 14:11:53;;;;;;;6.00;5.40;;;;;;;;;;5082348;28;20223;-56
2022/03/13 14:14:20;;;;;;;6.47;5.77;;;;;;;;;;5083197;28;20175;-55
2022/03/13 14:16:46;;;;;;;6.60;5.80;;;;;;;;;;5082354;28;20208;-55
2022/03/13 14:19:12;;;;;;;6.73;6.03;;;;;;;;;;5080792;28;20180;-56
2022/03/13 14:21:39;;;;;;;7.37;6.20;;;;;;;;;;5079237;28;20768;-56
2022/03/13 14:24:06;;;;;;;6.10;5.37;;;;;;;;;;5084699;28;20631;-55
2022/03/13 14:26:33;;;;;;;8.73;6.13;;;;;;;;;;5084444;28;20172;-55
2022/03/13 14:28:59;;;;;;;6.13;5.53;;;;;;;;;;5076777;28;20185;-55
2022/03/13 14:31:26;;;;;;;7.00;5.47;;;;;;;;;;5086065;28;20183;-55
2022/03/13 14:33:52;;;;;;;5.60;5.10;;;;;;;;;;5088677;28;20179;-56
2022/03/13 14:36:18;;;;;;;6.67;5.67;;;;;;;;;;5084341;28;20186;-56
2022/03/13 14:38:48;;;;;;;6.10;5.53;;;;;;;;;;5090754;28;20658;-56
2022/03/13 14:41:18;;;;;;;6.37;5.77;;;;;;;;;;5056921;28;20180;-57
2022/03/13 14:43:45;;;;;;;7.07;6.33;;;;;;;;;;5072197;28;20256;-54
2022/03/13 14:46:13;;;;;;;5.83;5.23;;;;;;;;;;5068243;28;20176;-56
2022/03/13 14:48:40;;;;;;;6.10;5.50;;;;;;;;;;5082990;28;20187;-56